Flight Track Log - Related Links

Times and Time Zones

All times are in EDT time to prevent confusion due to time zone crossing. See the SLI2070 flight status page for this flight to view local times or setup timezone preferences in your user account.

Time Position Orientation Groundspeed Altitude Reporting Facility
EDT Latitude Longitude Course Direction KTS MPH feet Rate Location/Type
11:31AM 20.7954 -102.1261 296° West  Level Estimated
11:32AM 20.8384 -102.2255 295° West  Level Estimated
11:33AM 20.8813 -102.3250 295° West  Level Estimated
11:34AM 20.9241 -102.4245 295° West  Level Estimated
11:35AM 20.9669 -102.5240 295° West  Level Estimated
11:36AM 21.0096 -102.6237 295° West  Level Estimated
11:37AM 21.0523 -102.7234 295° West  Level Estimated
11:38AM 21.0949 -102.8231 295° West  Level Estimated
11:39AM 21.1374 -102.9229 295° West  Level Estimated
11:40AM 21.1799 -103.0228 295° West  Level Estimated
11:41AM 21.2223 -103.1227 295° West  Level Estimated
11:42AM 21.2647 -103.2227 294° West  Level Estimated
11:43AM 21.3070 -103.3227 294° West  Level Estimated
11:44AM 21.3493 -103.4228 294° West  Level Estimated
11:45AM 21.3915 -103.5230 294° West  Level Estimated
11:46AM 21.4336 -103.6232 294° West  Level Estimated
11:47AM 21.4757 -103.7234 294° West  Level Estimated
11:48AM 21.5177 -103.8238 294° West  Level Estimated
11:49AM 21.5596 -103.9241 294° West  Level Estimated
11:50AM 21.6015 -104.0246 294° West  Level Estimated
11:51AM 21.6434 -104.1251 294° West  Level Estimated
11:52AM 21.6851 -104.2256 294° West  Level Estimated
11:53AM 21.7268 -104.3263 294° West  Level Estimated
11:54AM 21.7685 -104.4269 294° West  Level Estimated
11:55AM 21.8101 -104.5277 294° West  Level Estimated
11:56AM 21.8516 -104.6285 294° West  Level Estimated
11:57AM 21.8931 -104.7293 294° West  Level Estimated
11:58AM 21.9345 -104.8302 294° West  Level Estimated
11:59AM 21.9758 -104.9312 294° West  Level Estimated
12:00PM 22.0171 -105.0322 294° West  Level Estimated
12:01PM 22.0583 -105.1333 294° West  Level Estimated
12:02PM 22.0995 -105.2344 294° West  Level Estimated
12:03PM 22.1406 -105.3356 294° West  Level Estimated
12:04PM 22.1816 -105.4369 294° West  Level Estimated
12:05PM 22.2226 -105.5382 294° West  Level Estimated
12:06PM 22.2635 -105.6396 294° West  Level Estimated
12:07PM 22.3044 -105.7410 294° West  Level Estimated
12:08PM 22.3451 -105.8425 293° West  Level Estimated
12:09PM 22.3859 -105.9441 293° West  Level Estimated
12:10PM 22.4265 -106.0457 293° West  Level Estimated
12:11PM 22.4671 -106.1474 293° West  Level Estimated
12:12PM 22.5076 -106.2491 293° West  Level Estimated
12:13PM 22.5481 -106.3509 293° West  Level Estimated
12:14PM 22.5885 -106.4528 293° West  Level Estimated
12:15PM 22.6289 -106.5547 293° West  Level Estimated
12:16PM 22.6691 -106.6566 293° West  Level Estimated
12:17PM 22.7093 -106.7587 293° West  Level Estimated
12:18PM 22.7495 -106.8608 293° West  Level Estimated
12:19PM 22.7896 -106.9629 293° West  Level Estimated
12:20PM 22.8296 -107.0651 293° West  Level Estimated
12:21PM 22.8695 -107.1674 293° West  Level Estimated
12:22PM 22.9094 -107.2697 293° West  Level Estimated
12:23PM 22.9492 -107.3721 293° West  Level Estimated
12:24PM 22.9890 -107.4746 293° West  Level Estimated
12:25PM 23.0287 -107.5771 293° West  Level Estimated
12:26PM 23.0683 -107.6797 293° West  Level Estimated
12:27PM 23.1078 -107.7823 293° West  Level Estimated
12:28PM 23.1473 -107.8850 293° West  Level Estimated
12:29PM 23.1867 -107.9878 293° West  Level Estimated
12:30PM 23.2261 -108.0906 293° West  Level Estimated
12:31PM 23.2654 -108.1935 293° West  Level Estimated
12:32PM 23.3046 -108.2964 293° West  Level Estimated
12:33PM 23.3438 -108.3994 293° West  Level Estimated
12:34PM 23.3828 -108.5025 292° West  Level Estimated
12:35PM 23.4219 -108.6056 292° West  Level Estimated
12:36PM 23.4608 -108.7088 292° West  Level Estimated
12:37PM 23.4997 -108.8120 292° West  Level Estimated
12:38PM 23.5385 -108.9153 292° West  Level Estimated
12:39PM 23.5773 -109.0187 292° West  Level Estimated
12:40PM 23.6159 -109.1221 292° West  Level Estimated
12:41PM 23.6546 -109.2256 292° West  Level Estimated
12:42PM 23.6931 -109.3291 292° West  Level Estimated
12:43PM 23.7316 -109.4327 292° West  Level Estimated
12:44PM 23.7700 -109.5364 292° West  Level Estimated
12:45PM 23.8083 -109.6401 292° West  Level Estimated
12:46PM 23.8466 -109.7439 292° West  Level Estimated
12:47PM 23.8848 -109.8478 292° West  Level Estimated
12:48PM 23.9229 -109.9517 292° West  Level Estimated
12:49PM 23.9609 -110.0557 292° West  Level Estimated
12:50PM 23.9989 -110.1597 292° West  Level Estimated
12:51PM 24.0368 -110.2638 292° West  Level Estimated
12:52PM 24.0727 -110.3625 292° West  Level Estimated
12:53PM 24.0727 -110.3625 49° Northeast  Level Estimated
12:54PM 24.0727 -110.3625 49° Northeast  Level Estimated
12:55PM 24.0727 -110.3625 49° Northeast  Level Estimated
12:56PM 24.0727 -110.3625 49° Northeast  Level Estimated
12:57PM 24.0727 -110.3625 49° Northeast  Level Estimated
12:58PM 24.0727 -110.3625 49° Northeast  Level Estimated
12:59PM 24.0727 -110.3625 49° Northeast  Level Estimated
01:00PM 24.0727 -110.3625 49° Northeast  Level Estimated
01:01PM 24.0727 -110.3625 49° Northeast  Level Estimated
01:02PM 24.0727 -110.3625 49° Northeast  Level Estimated
01:03PM 24.0727 -110.3625 49° Northeast  Level Estimated
01:04PM 24.0727 -110.3625 49° Northeast  Level Estimated
01:05PM 24.0727 -110.3625 49° Northeast  Level Estimated
01:06PM 24.0727 -110.3625 49° Northeast  Level Estimated
01:07PM 24.0727 -110.3625 49° Northeast  Level Estimated
01:08PM 24.0727 -110.3625 49° Northeast  Level Estimated

Login

Don't have an account? Register now (free) for customized features, flight alerts, and more!